sensor_id;sensor_type;location;lat;lon;timestamp;pressure;altitude;pressure_sealevel;temperature;humidity
72118;BME280;59992;47.490;8.736;2023-04-06T00:02:40;96797.89;;;0.46;72.89
72118;BME280;59992;47.490;8.736;2023-04-06T00:05:31;96794.45;;;0.41;72.67
72118;BME280;59992;47.490;8.736;2023-04-06T00:08:21;96794.02;;;0.33;73.89
72118;BME280;59992;47.490;8.736;2023-04-06T00:11:12;96789.45;;;0.29;74.07
72118;BME280;59992;47.490;8.736;2023-04-06T00:14:02;96788.05;;;0.26;72.10
72118;BME280;59992;47.490;8.736;2023-04-06T00:16:53;96788.52;;;0.23;71.35
72118;BME280;59992;47.490;8.736;2023-04-06T00:19:43;96788.52;;;0.17;74.68
72118;BME280;59992;47.490;8.736;2023-04-06T00:22:33;96789.46;;;0.12;75.25
72118;BME280;59992;47.490;8.736;2023-04-06T00:25:24;96791.44;;;0.14;73.32
72118;BME280;59992;47.490;8.736;2023-04-06T00:28:15;96793.15;;;0.15;72.48
72118;BME280;59992;47.490;8.736;2023-04-06T00:31:06;96786.36;;;0.12;73.47
72118;BME280;59992;47.490;8.736;2023-04-06T00:33:56;96783.65;;;0.13;74.95
72118;BME280;59992;47.490;8.736;2023-04-06T00:36:46;96780.73;;;0.13;74.17
72118;BME280;59992;47.490;8.736;2023-04-06T00:39:36;96778.69;;;0.11;73.57
72118;BME280;59992;47.490;8.736;2023-04-06T00:42:27;96779.84;;;0.10;71.57
72118;BME280;59992;47.490;8.736;2023-04-06T00:45:18;96776.86;;;0.08;71.82
72118;BME280;59992;47.490;8.736;2023-04-06T00:48:09;96775.87;;;-0.04;76.02
72118;BME280;59992;47.490;8.736;2023-04-06T00:51:00;96776.08;;;-0.08;76.59
72118;BME280;59992;47.490;8.736;2023-04-06T00:53:51;96772.40;;;-0.09;74.98
72118;BME280;59992;47.490;8.736;2023-04-06T00:56:42;96772.73;;;-0.08;72.27
72118;BME280;59992;47.490;8.736;2023-04-06T00:59:34;96769.88;;;-0.08;73.53
72118;BME280;59992;47.490;8.736;2023-04-06T01:02:24;96759.93;;;-0.14;72.01
72118;BME280;59992;47.490;8.736;2023-04-06T01:05:16;96767.75;;;-0.12;72.80
72118;BME280;59992;47.490;8.736;2023-04-06T01:08:06;96765.55;;;-0.17;75.82
72118;BME280;59992;47.490;8.736;2023-04-06T01:10:58;96764.58;;;-0.20;73.72
72118;BME280;59992;47.490;8.736;2023-04-06T01:13:49;96763.80;;;-0.24;75.28
72118;BME280;59992;47.490;8.736;2023-04-06T01:16:40;96762.01;;;-0.29;74.18
72118;BME280;59992;47.490;8.736;2023-04-06T01:19:30;96762.38;;;-0.35;73.92
72118;BME280;59992;47.490;8.736;2023-04-06T01:22:21;96758.89;;;-0.39;75.80
72118;BME280;59992;47.490;8.736;2023-04-06T01:25:11;96757.98;;;-0.41;75.62
72118;BME280;59992;47.490;8.736;2023-04-06T01:28:02;96756.20;;;-0.43;74.64
72118;BME280;59992;47.490;8.736;2023-04-06T01:30:52;96759.67;;;-0.45;74.24
72118;BME280;59992;47.490;8.736;2023-04-06T01:33:43;96757.58;;;-0.51;75.97
72118;BME280;59992;47.490;8.736;2023-04-06T01:36:34;96758.45;;;-0.57;77.42
72118;BME280;59992;47.490;8.736;2023-04-06T01:39:24;96757.61;;;-0.63;76.92
72118;BME280;59992;47.490;8.736;2023-04-06T01:42:15;96756.77;;;-0.65;77.54
72118;BME280;59992;47.490;8.736;2023-04-06T01:45:07;96756.27;;;-0.67;77.21
72118;BME280;59992;47.490;8.736;2023-04-06T01:47:57;96752.48;;;-0.68;77.49
72118;BME280;59992;47.490;8.736;2023-04-06T01:50:47;96749.98;;;-0.68;76.21
72118;BME280;59992;47.490;8.736;2023-04-06T01:53:38;96745.53;;;-0.70;75.91
72118;BME280;59992;47.490;8.736;2023-04-06T01:56:29;96748.29;;;-0.74;77.68
72118;BME280;59992;47.490;8.736;2023-04-06T01:59:20;96750.80;;;-0.74;76.83
72118;BME280;59992;47.490;8.736;2023-04-06T02:02:10;96748.42;;;-0.76;74.07
72118;BME280;59992;47.490;8.736;2023-04-06T02:05:01;96744.08;;;-0.80;73.76
72118;BME280;59992;47.490;8.736;2023-04-06T02:07:52;96743.14;;;-0.84;73.44
72118;BME280;59992;47.490;8.736;2023-04-06T02:10:42;96743.33;;;-0.90;74.36
72118;BME280;59992;47.490;8.736;2023-04-06T02:13:32;96745.19;;;-0.96;76.92
72118;BME280;59992;47.490;8.736;2023-04-06T02:16:22;96750.52;;;-0.98;77.52
72118;BME280;59992;47.490;8.736;2023-04-06T02:19:13;96746.80;;;-1.00;76.91
72118;BME280;59992;47.490;8.736;2023-04-06T02:22:03;96746.83;;;-1.05;76.74
72118;BME280;59992;47.490;8.736;2023-04-06T02:24:54;96745.95;;;-1.09;76.59
72118;BME280;59992;47.490;8.736;2023-04-06T02:27:44;96745.77;;;-1.13;76.94
72118;BME280;59992;47.490;8.736;2023-04-06T02:30:34;96742.75;;;-1.16;78.11
72118;BME280;59992;47.490;8.736;2023-04-06T02:33:25;96742.14;;;-1.17;77.81
72118;BME280;59992;47.490;8.736;2023-04-06T02:36:15;96745.66;;;-1.19;78.56
72118;BME280;59992;47.490;8.736;2023-04-06T02:39:05;96747.20;;;-1.17;78.13
72118;BME280;59992;47.490;8.736;2023-04-06T02:41:56;96745.94;;;-1.16;77.18
72118;BME280;59992;47.490;8.736;2023-04-06T02:44:47;96740.73;;;-1.20;76.19
72118;BME280;59992;47.490;8.736;2023-04-06T02:47:37;96742.46;;;-1.22;75.50
72118;BME280;59992;47.490;8.736;2023-04-06T02:50:27;96740.16;;;-1.24;75.46
72118;BME280;59992;47.490;8.736;2023-04-06T02:53:18;96741.43;;;-1.29;76.19
72118;BME280;59992;47.490;8.736;2023-04-06T02:56:08;96738.79;;;-1.34;78.80
72118;BME280;59992;47.490;8.736;2023-04-06T02:58:59;96740.71;;;-1.35;78.98
72118;BME280;59992;47.490;8.736;2023-04-06T03:01:49;96741.65;;;-1.34;78.18
72118;BME280;59992;47.490;8.736;2023-04-06T03:04:40;96740.27;;;-1.36;78.66
72118;BME280;59992;47.490;8.736;2023-04-06T03:07:30;96739.08;;;-1.37;79.23
72118;BME280;59992;47.490;8.736;2023-04-06T03:10:20;96734.61;;;-1.37;78.84
72118;BME280;59992;47.490;8.736;2023-04-06T03:13:11;96732.50;;;-1.34;78.25
72118;BME280;59992;47.490;8.736;2023-04-06T03:16:01;96733.02;;;-1.35;76.69
72118;BME280;59992;47.490;8.736;2023-04-06T03:18:52;96731.10;;;-1.39;76.00
72118;BME280;59992;47.490;8.736;2023-04-06T03:21:43;96729.76;;;-1.43;77.31
72118;BME280;59992;47.490;8.736;2023-04-06T03:24:33;96730.11;;;-1.43;77.98
72118;BME280;59992;47.490;8.736;2023-04-06T03:27:23;96731.58;;;-1.43;77.21
72118;BME280;59992;47.490;8.736;2023-04-06T03:30:14;96731.95;;;-1.44;76.77
72118;BME280;59992;47.490;8.736;2023-04-06T03:33:06;96734.91;;;-1.49;78.11
72118;BME280;59992;47.490;8.736;2023-04-06T03:35:56;96734.73;;;-1.52;79.53
72118;BME280;59992;47.490;8.736;2023-04-06T03:38:46;96731.26;;;-1.56;78.03
72118;BME280;59992;47.490;8.736;2023-04-06T03:41:37;96738.05;;;-1.55;78.87
72118;BME280;59992;47.490;8.736;2023-04-06T03:44:27;96739.34;;;-1.58;78.58
72118;BME280;59992;47.490;8.736;2023-04-06T03:47:17;96744.27;;;-1.57;78.60
72118;BME280;59992;47.490;8.736;2023-04-06T03:50:08;96745.98;;;-1.57;78.41
72118;BME280;59992;47.490;8.736;2023-04-06T03:53:00;96750.11;;;-1.59;78.31
72118;BME280;59992;47.490;8.736;2023-04-06T03:55:51;96753.75;;;-1.60;77.34
72118;BME280;59992;47.490;8.736;2023-04-06T03:58:41;96753.16;;;-1.63;78.26
72118;BME280;59992;47.490;8.736;2023-04-06T04:01:35;96751.98;;;-1.64;79.19
72118;BME280;59992;47.490;8.736;2023-04-06T04:04:26;96750.89;;;-1.64;77.87
72118;BME280;59992;47.490;8.736;2023-04-06T04:07:16;96753.08;;;-1.69;77.92
72118;BME280;59992;47.490;8.736;2023-04-06T04:10:08;96753.27;;;-1.70;78.48
72118;BME280;59992;47.490;8.736;2023-04-06T04:12:58;96753.90;;;-1.73;77.89
72118;BME280;59992;47.490;8.736;2023-04-06T04:15:48;96755.75;;;-1.76;77.98
72118;BME280;59992;47.490;8.736;2023-04-06T04:18:39;96754.69;;;-1.78;78.33
72118;BME280;59992;47.490;8.736;2023-04-06T04:21:31;96752.96;;;-1.83;79.22
72118;BME280;59992;47.490;8.736;2023-04-06T04:24:21;96754.95;;;-1.83;79.10
72118;BME280;59992;47.490;8.736;2023-04-06T04:27:11;96752.02;;;-1.86;79.07
72118;BME280;59992;47.490;8.736;2023-04-06T04:30:02;96746.86;;;-1.95;79.33
72118;BME280;59992;47.490;8.736;2023-04-06T04:32:52;96759.70;;;-1.90;79.02
72118;BME280;59992;47.490;8.736;2023-04-06T04:35:43;96760.18;;;-1.93;78.61
72118;BME280;59992;47.490;8.736;2023-04-06T04:38:33;96757.45;;;-1.98;79.03
72118;BME280;59992;47.490;8.736;2023-04-06T04:41:24;96760.02;;;-2.01;79.95
72118;BME280;59992;47.490;8.736;2023-04-06T04:44:14;96764.02;;;-2.02;80.72
72118;BME280;59992;47.490;8.736;2023-04-06T04:47:04;96765.12;;;-2.02;79.36
72118;BME280;59992;47.490;8.736;2023-04-06T04:50:06;96766.80;;;-2.03;79.37
72118;BME280;59992;47.490;8.736;2023-04-06T04:52:56;96769.68;;;-2.06;79.81
72118;BME280;59992;47.490;8.736;2023-04-06T04:55:47;96764.23;;;-2.11;81.33
72118;BME280;59992;47.490;8.736;2023-04-06T04:58:37;96774.27;;;-2.03;81.00
72118;BME280;59992;47.490;8.736;2023-04-06T05:01:28;96774.41;;;-1.97;79.68
72118;BME280;59992;47.490;8.736;2023-04-06T05:04:19;96776.43;;;-1.91;78.70
72118;BME280;59992;47.490;8.736;2023-04-06T05:07:10;96779.66;;;-1.87;78.46
72118;BME280;59992;47.490;8.736;2023-04-06T05:10:00;96775.86;;;-1.85;78.58
72118;BME280;59992;47.490;8.736;2023-04-06T05:12:51;96784.38;;;-1.80;80.38
72118;BME280;59992;47.490;8.736;2023-04-06T05:15:41;96783.70;;;-1.74;79.89
72118;BME280;59992;47.490;8.736;2023-04-06T05:18:32;96779.79;;;-1.68;79.37
72118;BME280;59992;47.490;8.736;2023-04-06T05:21:23;96783.73;;;-1.63;78.60
72118;BME280;59992;47.490;8.736;2023-04-06T05:24:13;96788.02;;;-1.61;78.75
72118;BME280;59992;47.490;8.736;2023-04-06T05:27:04;96788.80;;;-1.57;78.41
72118;BME280;59992;47.490;8.736;2023-04-06T05:29:55;96792.13;;;-1.51;79.01
72118;BME280;59992;47.490;8.736;2023-04-06T05:32:46;96794.31;;;-1.42;78.50
72118;BME280;59992;47.490;8.736;2023-04-06T05:35:36;96795.48;;;-1.33;78.76
72118;BME280;59992;47.490;8.736;2023-04-06T05:38:27;96799.88;;;-1.22;77.14
72118;BME280;59992;47.490;8.736;2023-04-06T05:41:17;96800.48;;;-1.19;76.74
72118;BME280;59992;47.490;8.736;2023-04-06T05:44:07;96807.62;;;-1.12;76.62
72118;BME280;59992;47.490;8.736;2023-04-06T05:46:57;96805.70;;;-1.05;77.08
72118;BME280;59992;47.490;8.736;2023-04-06T05:49:48;96810.61;;;-0.91;76.14
72118;BME280;59992;47.490;8.736;2023-04-06T05:52:38;96811.27;;;-0.76;76.40
72118;BME280;59992;47.490;8.736;2023-04-06T05:55:32;96811.95;;;-0.59;75.51
72118;BME280;59992;47.490;8.736;2023-04-06T05:58:22;96809.73;;;-0.43;73.77
72118;BME280;59992;47.490;8.736;2023-04-06T06:01:13;96810.26;;;-0.27;73.83
72118;BME280;59992;47.490;8.736;2023-04-06T06:04:04;96809.64;;;-0.08;74.14
72118;BME280;59992;47.490;8.736;2023-04-06T06:06:54;96814.16;;;0.51;72.80
72118;BME280;59992;47.490;8.736;2023-04-06T06:09:45;96816.11;;;1.56;69.80
72118;BME280;59992;47.490;8.736;2023-04-06T06:12:35;96814.98;;;2.60;66.49
72118;BME280;59992;47.490;8.736;2023-04-06T06:15:25;96813.22;;;3.58;62.96
72118;BME280;59992;47.490;8.736;2023-04-06T06:18:15;96815.95;;;4.51;60.04
72118;BME280;59992;47.490;8.736;2023-04-06T06:21:06;96820.96;;;5.36;56.47
72118;BME280;59992;47.490;8.736;2023-04-06T06:23:56;96821.50;;;6.07;56.47
72118;BME280;59992;47.490;8.736;2023-04-06T06:26:47;96820.02;;;6.95;57.68
72118;BME280;59992;47.490;8.736;2023-04-06T06:29:37;96817.56;;;7.65;51.03
72118;BME280;59992;47.490;8.736;2023-04-06T06:32:29;96810.27;;;8.21;46.77
72118;BME280;59992;47.490;8.736;2023-04-06T06:35:19;96818.68;;;8.79;46.17
72118;BME280;59992;47.490;8.736;2023-04-06T06:38:10;96823.96;;;9.27;46.29
72118;BME280;59992;47.490;8.736;2023-04-06T06:41:00;96822.89;;;9.72;42.31
72118;BME280;59992;47.490;8.736;2023-04-06T06:43:51;96825.68;;;10.03;40.79
72118;BME280;59992;47.490;8.736;2023-04-06T06:46:41;96825.31;;;10.18;39.55
72118;BME280;59992;47.490;8.736;2023-04-06T06:49:35;96825.62;;;10.47;42.42
72118;BME280;59992;47.490;8.736;2023-04-06T06:52:25;96825.23;;;10.68;39.92
72118;BME280;59992;47.490;8.736;2023-04-06T06:55:17;96822.02;;;11.15;41.40
72118;BME280;59992;47.490;8.736;2023-04-06T06:58:09;96823.55;;;11.16;38.72
72118;BME280;59992;47.490;8.736;2023-04-06T07:01:00;96826.48;;;11.56;38.97
72118;BME280;59992;47.490;8.736;2023-04-06T07:03:51;96828.08;;;11.73;38.59
72118;BME280;59992;47.490;8.736;2023-04-06T07:06:41;96825.02;;;12.02;40.18
72118;BME280;59992;47.490;8.736;2023-04-06T07:09:32;96824.80;;;12.61;42.48
72118;BME280;59992;47.490;8.736;2023-04-06T07:12:23;96826.20;;;13.08;39.40
72118;BME280;59992;47.490;8.736;2023-04-06T07:15:13;96825.41;;;13.05;34.78
72118;BME280;59992;47.490;8.736;2023-04-06T07:18:04;96823.97;;;13.05;34.48
72118;BME280;59992;47.490;8.736;2023-04-06T07:20:54;96826.00;;;13.34;37.45
72118;BME280;59992;47.490;8.736;2023-04-06T07:23:45;96827.48;;;13.39;35.70
72118;BME280;59992;47.490;8.736;2023-04-06T07:26:37;96830.59;;;13.63;38.21
72118;BME280;59992;47.490;8.736;2023-04-06T07:29:27;96828.83;;;13.92;38.52
72118;BME280;59992;47.490;8.736;2023-04-06T07:32:17;96817.93;;;13.91;35.72
72118;BME280;59992;47.490;8.736;2023-04-06T07:35:08;96822.22;;;13.96;35.35
72118;BME280;59992;47.490;8.736;2023-04-06T07:37:58;96820.34;;;13.69;33.59
72118;BME280;59992;47.490;8.736;2023-04-06T07:40:49;96823.85;;;13.72;35.35
72118;BME280;59992;47.490;8.736;2023-04-06T07:43:39;96819.75;;;13.89;36.72
72118;BME280;59992;47.490;8.736;2023-04-06T07:46:30;96823.07;;;14.01;35.34
72118;BME280;59992;47.490;8.736;2023-04-06T07:49:20;96821.36;;;14.15;35.42
72118;BME280;59992;47.490;8.736;2023-04-06T07:52:11;96823.88;;;14.34;34.10
72118;BME280;59992;47.490;8.736;2023-04-06T07:55:02;96822.05;;;14.33;33.63
72118;BME280;59992;47.490;8.736;2023-04-06T07:57:52;96822.86;;;14.24;33.71
72118;BME280;59992;47.490;8.736;2023-04-06T08:00:42;96821.26;;;14.25;33.07
72118;BME280;59992;47.490;8.736;2023-04-06T08:03:34;96819.14;;;14.62;34.71
72118;BME280;59992;47.490;8.736;2023-04-06T08:06:25;96821.81;;;14.77;34.33
72118;BME280;59992;47.490;8.736;2023-04-06T08:09:15;96815.57;;;14.78;31.51
72118;BME280;59992;47.490;8.736;2023-04-06T08:12:05;96820.30;;;14.85;32.08
72118;BME280;59992;47.490;8.736;2023-04-06T08:14:55;96816.79;;;15.09;31.89
72118;BME280;59992;47.490;8.736;2023-04-06T08:17:46;96815.41;;;14.98;31.47
72118;BME280;59992;47.490;8.736;2023-04-06T08:20:36;96814.88;;;14.61;30.93
72118;BME280;59992;47.490;8.736;2023-04-06T08:23:27;96811.40;;;14.18;30.69
72118;BME280;59992;47.490;8.736;2023-04-06T08:26:18;96801.65;;;14.43;31.52
72118;BME280;59992;47.490;8.736;2023-04-06T08:29:08;96808.23;;;14.53;30.40
72118;BME280;59992;47.490;8.736;2023-04-06T08:32:00;96806.69;;;14.49;31.23
72118;BME280;59992;47.490;8.736;2023-04-06T08:34:55;96807.60;;;14.01;31.43
72118;BME280;59992;47.490;8.736;2023-04-06T08:37:46;96806.04;;;14.09;31.19
72118;BME280;59992;47.490;8.736;2023-04-06T08:40:38;96806.25;;;14.02;31.72
72118;BME280;59992;47.490;8.736;2023-04-06T08:43:29;96808.39;;;14.08;31.71
72118;BME280;59992;47.490;8.736;2023-04-06T08:46:20;96804.38;;;14.16;31.26
72118;BME280;59992;47.490;8.736;2023-04-06T08:49:11;96804.34;;;14.02;31.67
72118;BME280;59992;47.490;8.736;2023-04-06T08:52:02;96803.67;;;14.07;30.54
72118;BME280;59992;47.490;8.736;2023-04-06T08:54:53;96807.87;;;14.32;30.90
72118;BME280;59992;47.490;8.736;2023-04-06T08:57:43;96806.80;;;14.27;31.50
72118;BME280;59992;47.490;8.736;2023-04-06T09:00:38;96802.75;;;14.27;31.62
72118;BME280;59992;47.490;8.736;2023-04-06T09:03:29;96801.23;;;14.30;31.84
72118;BME280;59992;47.490;8.736;2023-04-06T09:06:22;96801.27;;;14.45;30.84
72118;BME280;59992;47.490;8.736;2023-04-06T09:09:12;96801.23;;;14.30;30.69
72118;BME280;59992;47.490;8.736;2023-04-06T09:12:02;96794.95;;;14.17;31.07
72118;BME280;59992;47.490;8.736;2023-04-06T09:14:55;96796.04;;;14.27;32.98
72118;BME280;59992;47.490;8.736;2023-04-06T09:17:46;96792.71;;;14.34;30.74
72118;BME280;59992;47.490;8.736;2023-04-06T09:20:36;96785.20;;;14.19;30.51
72118;BME280;59992;47.490;8.736;2023-04-06T09:23:27;96789.45;;;13.91;33.11
72118;BME280;59992;47.490;8.736;2023-04-06T09:26:18;96782.98;;;13.87;32.87
72118;BME280;59992;47.490;8.736;2023-04-06T09:29:09;96782.42;;;13.66;31.63
72118;BME280;59992;47.490;8.736;2023-04-06T09:32:05;96781.98;;;13.39;31.56
72118;BME280;59992;47.490;8.736;2023-04-06T09:35:07;96785.37;;;12.80;32.05
72118;BME280;59992;47.490;8.736;2023-04-06T09:37:57;96785.15;;;12.74;31.97
72118;BME280;59992;47.490;8.736;2023-04-06T09:40:51;96779.89;;;12.44;32.62
72118;BME280;59992;47.490;8.736;2023-04-06T09:43:41;96773.65;;;12.19;32.42
72118;BME280;59992;47.490;8.736;2023-04-06T09:46:34;96770.67;;;11.96;34.47
72118;BME280;59992;47.490;8.736;2023-04-06T09:49:25;96776.52;;;11.95;34.61
72118;BME280;59992;47.490;8.736;2023-04-06T09:52:18;96774.13;;;12.05;33.89
72118;BME280;59992;47.490;8.736;2023-04-06T09:55:10;96771.01;;;11.98;33.44
72118;BME280;59992;47.490;8.736;2023-04-06T09:58:06;96770.55;;;12.12;34.61
72118;BME280;59992;47.490;8.736;2023-04-06T10:01:11;96770.70;;;12.12;33.00
72118;BME280;59992;47.490;8.736;2023-04-06T10:04:13;96771.11;;;11.87;33.28
72118;BME280;59992;47.490;8.736;2023-04-06T10:07:08;96772.02;;;12.00;33.12
72118;BME280;59992;47.490;8.736;2023-04-06T10:10:03;96777.10;;;12.07;34.19
72118;BME280;59992;47.490;8.736;2023-04-06T10:12:55;96775.84;;;12.02;32.74
72118;BME280;59992;47.490;8.736;2023-04-06T10:15:46;96769.61;;;12.02;31.59
72118;BME280;59992;47.490;8.736;2023-04-06T10:18:37;96769.89;;;11.80;32.31
72118;BME280;59992;47.490;8.736;2023-04-06T10:21:31;96769.40;;;11.59;32.93
72118;BME280;59992;47.490;8.736;2023-04-06T10:24:22;96766.55;;;11.51;33.45
72118;BME280;59992;47.490;8.736;2023-04-06T10:27:13;96762.09;;;11.46;33.31
72118;BME280;59992;47.490;8.736;2023-04-06T10:30:05;96765.08;;;11.36;33.55
72118;BME280;59992;47.490;8.736;2023-04-06T10:32:56;96769.95;;;11.43;35.44
72118;BME280;59992;47.490;8.736;2023-04-06T10:35:47;96768.13;;;11.48;34.09
72118;BME280;59992;47.490;8.736;2023-04-06T10:38:39;96766.11;;;11.46;33.67
72118;BME280;59992;47.490;8.736;2023-04-06T10:41:35;96764.56;;;11.49;34.45
72118;BME280;59992;47.490;8.736;2023-04-06T10:44:26;96764.40;;;11.54;33.48
72118;BME280;59992;47.490;8.736;2023-04-06T10:47:19;96753.27;;;11.51;33.19
72118;BME280;59992;47.490;8.736;2023-04-06T10:50:11;96759.03;;;11.50;32.86
72118;BME280;59992;47.490;8.736;2023-04-06T10:53:04;96762.73;;;11.36;35.34
72118;BME280;59992;47.490;8.736;2023-04-06T10:55:56;96765.19;;;11.56;34.10
72118;BME280;59992;47.490;8.736;2023-04-06T10:58:47;96756.64;;;11.70;33.15
72118;BME280;59992;47.490;8.736;2023-04-06T11:01:38;96767.13;;;11.83;33.88
72118;BME280;59992;47.490;8.736;2023-04-06T11:04:34;96762.55;;;11.95;33.19
72118;BME280;59992;47.490;8.736;2023-04-06T11:07:28;96758.39;;;12.05;32.47
72118;BME280;59992;47.490;8.736;2023-04-06T11:10:23;96761.23;;;12.07;32.87
72118;BME280;59992;47.490;8.736;2023-04-06T11:13:14;96761.36;;;11.97;33.72
72118;BME280;59992;47.490;8.736;2023-04-06T11:16:05;96758.17;;;11.83;32.20
72118;BME280;59992;47.490;8.736;2023-04-06T11:18:56;96756.34;;;11.77;31.65
72118;BME280;59992;47.490;8.736;2023-04-06T11:21:48;96752.79;;;11.77;32.77
72118;BME280;59992;47.490;8.736;2023-04-06T11:24:38;96746.33;;;11.90;32.40
72118;BME280;59992;47.490;8.736;2023-04-06T11:27:29;96743.95;;;11.88;30.77
72118;BME280;59992;47.490;8.736;2023-04-06T11:30:21;96741.08;;;11.90;32.79
72118;BME280;59992;47.490;8.736;2023-04-06T11:33:19;96737.73;;;12.03;31.71
72118;BME280;59992;47.490;8.736;2023-04-06T11:36:10;96739.22;;;12.08;30.19
72118;BME280;59992;47.490;8.736;2023-04-06T11:39:00;96736.02;;;12.07;30.20
72118;BME280;59992;47.490;8.736;2023-04-06T11:41:57;96732.90;;;12.06;30.95
72118;BME280;59992;47.490;8.736;2023-04-06T11:44:49;96726.96;;;12.05;32.29
72118;BME280;59992;47.490;8.736;2023-04-06T11:47:40;96726.36;;;12.05;30.01
72118;BME280;59992;47.490;8.736;2023-04-06T11:50:34;96729.77;;;12.11;30.54
72118;BME280;59992;47.490;8.736;2023-04-06T11:53:24;96730.38;;;12.28;30.65
72118;BME280;59992;47.490;8.736;2023-04-06T11:56:25;96721.10;;;12.36;31.23
72118;BME280;59992;47.490;8.736;2023-04-06T11:59:16;96714.41;;;12.44;30.35
72118;BME280;59992;47.490;8.736;2023-04-06T12:02:06;96714.10;;;12.43;31.79
72118;BME280;59992;47.490;8.736;2023-04-06T12:04:57;96705.80;;;12.50;30.68
72118;BME280;59992;47.490;8.736;2023-04-06T12:07:47;96713.66;;;12.45;30.42
72118;BME280;59992;47.490;8.736;2023-04-06T12:10:37;96709.38;;;12.33;30.69
72118;BME280;59992;47.490;8.736;2023-04-06T12:13:28;96703.32;;;12.25;31.05
72118;BME280;59992;47.490;8.736;2023-04-06T12:16:18;96705.19;;;12.22;30.33
72118;BME280;59992;47.490;8.736;2023-04-06T12:19:09;96703.95;;;12.03;30.01
72118;BME280;59992;47.490;8.736;2023-04-06T12:21:59;96709.64;;;11.94;30.61
72118;BME280;59992;47.490;8.736;2023-04-06T12:24:50;96700.77;;;12.04;29.18
72118;BME280;59992;47.490;8.736;2023-04-06T12:27:40;96697.17;;;12.09;29.46
72118;BME280;59992;47.490;8.736;2023-04-06T12:30:30;96700.53;;;12.28;30.86
72118;BME280;59992;47.490;8.736;2023-04-06T12:33:21;96702.65;;;12.26;28.80
72118;BME280;59992;47.490;8.736;2023-04-06T12:36:14;96697.65;;;12.11;29.65
72118;BME280;59992;47.490;8.736;2023-04-06T12:39:07;96694.23;;;12.20;30.28
72118;BME280;59992;47.490;8.736;2023-04-06T12:41:58;96692.89;;;12.32;30.06
72118;BME280;59992;47.490;8.736;2023-04-06T12:44:48;96686.39;;;12.43;30.43
72118;BME280;59992;47.490;8.736;2023-04-06T12:47:39;96685.52;;;12.50;29.83
72118;BME280;59992;47.490;8.736;2023-04-06T12:50:29;96680.45;;;12.64;30.08
72118;BME280;59992;47.490;8.736;2023-04-06T12:53:20;96686.77;;;12.77;29.85
72118;BME280;59992;47.490;8.736;2023-04-06T12:56:15;96684.46;;;12.87;30.15
72118;BME280;59992;47.490;8.736;2023-04-06T12:59:06;96682.33;;;12.86;28.90
72118;BME280;59992;47.490;8.736;2023-04-06T13:01:57;96685.80;;;12.93;28.28
72118;BME280;59992;47.490;8.736;2023-04-06T13:04:47;96686.38;;;13.00;30.38
72118;BME280;59992;47.490;8.736;2023-04-06T13:07:38;96682.85;;;13.20;28.30
72118;BME280;59992;47.490;8.736;2023-04-06T13:10:28;96681.00;;;13.32;29.16
72118;BME280;59992;47.490;8.736;2023-04-06T13:13:23;96681.41;;;13.23;28.08
72118;BME280;59992;47.490;8.736;2023-04-06T13:16:14;96680.31;;;13.15;28.50
72118;BME280;59992;47.490;8.736;2023-04-06T13:19:05;96673.20;;;13.43;28.47
72118;BME280;59992;47.490;8.736;2023-04-06T13:21:56;96670.90;;;13.57;28.76
72118;BME280;59992;47.490;8.736;2023-04-06T13:24:47;96671.23;;;13.67;29.00
72118;BME280;59992;47.490;8.736;2023-04-06T13:27:37;96666.94;;;13.56;27.51
72118;BME280;59992;47.490;8.736;2023-04-06T13:30:28;96667.31;;;13.54;26.87
72118;BME280;59992;47.490;8.736;2023-04-06T13:33:19;96663.29;;;13.57;27.77
72118;BME280;59992;47.490;8.736;2023-04-06T13:36:09;96666.73;;;13.65;28.19
72118;BME280;59992;47.490;8.736;2023-04-06T13:39:00;96664.56;;;13.78;29.31
72118;BME280;59992;47.490;8.736;2023-04-06T13:41:52;96661.45;;;13.93;27.40
72118;BME280;59992;47.490;8.736;2023-04-06T13:44:44;96661.32;;;14.07;28.32
72118;BME280;59992;47.490;8.736;2023-04-06T13:47:36;96652.49;;;14.07;25.73
72118;BME280;59992;47.490;8.736;2023-04-06T13:50:28;96643.21;;;14.21;26.69
72118;BME280;59992;47.490;8.736;2023-04-06T13:53:18;96648.17;;;14.31;26.80
72118;BME280;59992;47.490;8.736;2023-04-06T13:56:09;96644.97;;;14.45;26.96
72118;BME280;59992;47.490;8.736;2023-04-06T13:58:59;96643.81;;;14.59;26.77
72118;BME280;59992;47.490;8.736;2023-04-06T14:01:50;96646.16;;;14.68;26.03
72118;BME280;59992;47.490;8.736;2023-04-06T14:04:40;96645.47;;;14.76;26.94
72118;BME280;59992;47.490;8.736;2023-04-06T14:07:31;96642.94;;;14.79;27.29
72118;BME280;59992;47.490;8.736;2023-04-06T14:10:21;96635.59;;;14.92;26.56
72118;BME280;59992;47.490;8.736;2023-04-06T14:13:15;96633.35;;;14.98;26.05
72118;BME280;59992;47.490;8.736;2023-04-06T14:16:07;96629.85;;;14.97;26.34
72118;BME280;59992;47.490;8.736;2023-04-06T14:18:57;96625.45;;;14.44;25.46
72118;BME280;59992;47.490;8.736;2023-04-06T14:21:48;96635.35;;;14.56;26.53
72118;BME280;59992;47.490;8.736;2023-04-06T14:24:38;96628.86;;;14.70;26.75
72118;BME280;59992;47.490;8.736;2023-04-06T14:27:29;96631.85;;;14.55;26.63
72118;BME280;59992;47.490;8.736;2023-04-06T14:30:19;96629.05;;;14.25;26.26
72118;BME280;59992;47.490;8.736;2023-04-06T14:33:14;96627.90;;;14.26;26.45
72118;BME280;59992;47.490;8.736;2023-04-06T14:36:05;96633.86;;;14.33;27.07
72118;BME280;59992;47.490;8.736;2023-04-06T14:38:56;96626.53;;;14.34;26.52
72118;BME280;59992;47.490;8.736;2023-04-06T14:41:47;96627.77;;;14.28;28.27
72118;BME280;59992;47.490;8.736;2023-04-06T14:44:37;96628.52;;;14.25;28.38
72118;BME280;59992;47.490;8.736;2023-04-06T14:47:31;96632.62;;;14.26;28.34
72118;BME280;59992;47.490;8.736;2023-04-06T14:50:21;96633.60;;;14.04;28.22
72118;BME280;59992;47.490;8.736;2023-04-06T14:53:12;96633.06;;;14.02;28.02
72118;BME280;59992;47.490;8.736;2023-04-06T14:56:02;96635.73;;;14.03;28.73
72118;BME280;59992;47.490;8.736;2023-04-06T14:58:53;96633.45;;;13.99;28.05
72118;BME280;59992;47.490;8.736;2023-04-06T15:01:45;96637.11;;;13.97;28.79
72118;BME280;59992;47.490;8.736;2023-04-06T15:04:36;96634.41;;;13.81;28.34
72118;BME280;59992;47.490;8.736;2023-04-06T15:07:26;96637.90;;;13.70;27.83